Time;durP1;ratioP1;P1;durP2;ratioP2;P2;SDS_P1;SDS_P2;PMS_P1;PMS_P2;Temp;Humidity;BMP_temperature;BMP_pressure;BME280_temperature;BME280_humidity;BME280_pressure;Samples;Min_cycle;Max_cycle;Signal;HPM_P1;HPM_P2
2023/06/30 00:01:49;;;;;;;5.40;4.90;;;;;;;17.49;83.71;100028.88;104179;277;98231;-59
2023/06/30 00:04:23;;;;;;;6.60;5.30;;;;;;;17.44;83.71;100024.68;104206;277;119809;-59
2023/06/30 00:06:57;;;;;;;5.30;4.80;;;;;;;17.39;83.81;100023.98;104656;277;105035;-59
2023/06/30 00:09:32;;;;;;;5.00;4.50;;;;;;;17.36;83.97;100022.66;104213;277;113255;-59
2023/06/30 00:12:04;;;;;;;;;;;;;;;17.33;84.02;100017.89;104617;277;95686;-56
2023/06/30 00:14:38;;;;;;;5.80;5.30;;;;;;;17.29;84.18;100023.02;104668;277;96887;-56
2023/06/30 00:17:12;;;;;;;6.60;4.80;;;;;;;17.26;84.25;100021.75;104157;278;119999;-58
2023/06/30 00:19:45;;;;;;;;;;;;;;;17.25;84.43;100024.95;104660;277;106368;-58
2023/06/30 00:22:21;;;;;;;6.00;5.20;;;;;;;17.18;84.62;100029.02;104160;277;114971;-59
2023/06/30 00:24:58;;;;;;;6.30;5.20;;;;;;;17.17;84.35;100029.86;104142;277;96607;-59
2023/06/30 00:27:32;;;;;;;5.40;4.90;;;;;;;17.16;84.21;100027.98;104661;277;95945;-59
2023/06/30 00:30:06;;;;;;;;;;;;;;;17.11;84.23;100025.58;104161;277;120449;-60
2023/06/30 00:32:41;;;;;;;6.10;5.40;;;;;;;16.99;84.06;100024.35;104156;277;105676;-58
2023/06/30 00:35:15;;;;;;;7.10;5.40;;;;;;;16.89;83.99;100021.83;104643;277;115248;-58
2023/06/30 00:37:49;;;;;;;5.80;5.30;;;;;;;16.81;84.02;100016.30;104116;277;97263;-59
2023/06/30 00:40:23;;;;;;;5.00;4.50;;;;;;;16.73;84.07;100013.83;104159;277;98001;-59
2023/06/30 00:42:58;;;;;;;5.60;5.10;;;;;;;16.65;84.09;100009.06;104158;277;120824;-55
2023/06/30 00:45:32;;;;;;;5.70;5.00;;;;;;;16.58;84.24;100012.63;104123;277;104228;-55
2023/06/30 00:48:07;;;;;;;5.40;4.80;;;;;;;16.49;84.15;100011.83;104196;277;114368;-58
2023/06/30 00:50:41;;;;;;;6.00;5.40;;;;;;;16.40;84.17;100007.54;104178;277;96532;-58
2023/06/30 00:53:17;;;;;;;5.80;5.30;;;;;;;16.30;84.45;100005.66;104154;277;96217;-59
2023/06/30 00:55:51;;;;;;;5.80;5.10;;;;;;;16.28;84.54;100006.08;104078;277;120351;-58
2023/06/30 00:58:25;;;;;;;7.30;5.60;;;;;;;16.23;84.79;100008.42;104148;277;104695;-59
2023/06/30 01:01:06;;;;;;;5.70;5.10;;;;;;;16.21;84.75;100002.77;104636;277;114592;-55
2023/06/30 01:03:47;;;;;;;5.70;5.20;;;;;;;16.15;84.84;99997.70;104140;277;96192;-55
2023/06/30 01:06:28;;;;;;;6.40;5.20;;;;;;;16.06;84.92;99990.73;104650;277;97300;-55
2023/06/30 01:09:07;;;;;;;5.60;5.10;;;;;;;16.02;84.95;99990.17;104135;277;120860;-55
2023/06/30 01:11:43;;;;;;;5.20;4.70;;;;;;;15.96;84.93;99988.63;104597;277;106116;-55
2023/06/30 01:14:18;;;;;;;5.70;4.60;;;;;;;15.90;84.84;99991.48;104523;279;113483;-55
2023/06/30 01:16:54;;;;;;;5.90;5.20;;;;;;;15.87;85.04;99996.23;104063;279;97493;-56
2023/06/30 01:19:44;;;;;;;6.40;5.60;;;;;;;15.83;85.09;99996.20;104088;279;97071;-56
2023/06/30 01:22:29;;;;;;;6.40;5.70;;;;;;;15.78;85.15;99993.98;104072;279;119505;-58
2023/06/30 01:25:10;;;;;;;;;;;;;;;15.70;85.26;100000.81;104129;279;105527;-59
2023/06/30 01:27:45;;;;;;;7.80;5.60;;;;;;;15.66;85.45;100000.42;103872;279;114875;-55
2023/06/30 01:30:20;;;;;;;6.00;5.50;;;;;;;15.61;85.29;99993.58;104472;279;96082;-55
2023/06/30 01:32:55;;;;;;;5.40;4.90;;;;;;;15.59;85.08;99990.39;103886;280;99333;-58
2023/06/30 01:35:30;;;;;;;5.70;5.20;;;;;;;15.56;85.26;99985.35;104060;279;120644;-58
2023/06/30 01:38:04;;;;;;;5.80;5.30;;;;;;;15.52;85.29;99985.08;104131;279;105605;-59
2023/06/30 01:40:38;;;;;;;5.90;5.30;;;;;;;15.49;85.44;99982.36;104481;279;115231;-59
2023/06/30 01:43:13;;;;;;;6.30;5.70;;;;;;;15.44;85.55;99977.88;104098;279;97103;-55
2023/06/30 01:45:49;;;;;;;5.80;5.30;;;;;;;15.41;85.60;99977.86;104124;279;97262;-57
2023/06/30 01:48:25;;;;;;;7.60;5.90;;;;;;;15.38;85.47;99980.86;104115;279;119738;-56
2023/06/30 01:51:00;;;;;;;6.40;5.80;;;;;;;15.34;85.50;99978.73;104111;279;104354;-56
2023/06/30 01:53:35;;;;;;;7.30;5.30;;;;;;;15.30;85.72;99979.23;104122;279;114496;-56
2023/06/30 01:56:09;;;;;;;6.10;5.60;;;;;;;15.27;85.67;99979.56;104071;279;97280;-55
2023/06/30 01:58:43;;;;;;;6.20;5.50;;;;;;;15.22;85.67;99980.48;104079;279;97649;-55
2023/06/30 02:01:17;;;;;;;6.50;5.90;;;;;;;15.17;85.81;99981.67;104094;279;121187;-55
2023/06/30 02:03:51;;;;;;;6.80;5.80;;;;;;;15.13;85.88;99981.90;104452;279;105989;-55
2023/06/30 02:06:24;;;;;;;;;;;;;;;15.11;85.96;99980.09;104093;279;114679;-56
2023/06/30 02:08:58;;;;;;;6.30;5.70;;;;;;;15.06;86.26;99980.44;104083;279;94748;-56
2023/06/30 02:11:31;;;;;;;;;;;;;;;15.06;86.14;99978.84;104115;279;97126;-58
2023/06/30 02:14:05;;;;;;;6.60;5.90;;;;;;;15.06;86.15;99980.39;104070;279;119811;-58
2023/06/30 02:16:39;;;;;;;7.00;6.00;;;;;;;15.05;86.24;99979.91;104083;279;105322;-58
2023/06/30 02:19:13;;;;;;;6.20;5.60;;;;;;;15.03;86.15;99982.57;104073;279;113168;-58
2023/06/30 02:21:46;;;;;;;;;;;;;;;15.01;86.20;99982.58;104502;279;97030;-55
2023/06/30 02:24:20;;;;;;;6.30;5.70;;;;;;;14.96;86.22;99980.02;104087;279;97967;-55
2023/06/30 02:26:54;;;;;;;6.60;6.00;;;;;;;14.94;86.44;99982.09;104127;279;119314;-59
2023/06/30 02:29:28;;;;;;;6.50;5.80;;;;;;;14.93;86.43;99979.67;103844;279;104867;-59
2023/06/30 02:32:01;;;;;;;;;;;;;;;14.88;86.25;99974.76;104510;279;114218;-58
2023/06/30 02:34:35;;;;;;;8.10;5.60;;;;;;;14.82;86.58;99977.17;104507;279;95302;-58
2023/06/30 02:37:09;;;;;;;7.00;5.70;;;;;;;14.84;86.57;99975.64;104135;279;97626;-56
2023/06/30 02:39:43;;;;;;;7.30;5.90;;;;;;;14.85;86.57;99975.13;104078;279;119874;-56
2023/06/30 02:42:17;;;;;;;7.10;6.40;;;;;;;14.85;86.76;99971.16;104054;279;104062;-58
2023/06/30 02:44:51;;;;;;;6.50;6.00;;;;;;;14.88;86.76;99971.88;103825;280;116031;-58
2023/06/30 02:47:25;;;;;;;6.60;5.80;;;;;;;14.90;86.85;99968.04;104477;279;96422;-56
2023/06/30 02:49:59;;;;;;;6.60;5.70;;;;;;;14.90;86.72;99970.89;104084;279;98124;-56
2023/06/30 02:52:33;;;;;;;6.40;5.80;;;;;;;14.93;86.71;99966.45;104444;279;121553;-55
2023/06/30 02:55:08;;;;;;;6.30;5.60;;;;;;;14.92;86.85;99966.14;104053;279;106028;-55
2023/06/30 02:57:42;;;;;;;6.30;5.70;;;;;;;14.92;86.89;99965.63;104099;279;113564;-58
2023/06/30 03:00:18;;;;;;;6.00;5.00;;;;;;;14.96;86.83;99960.89;104086;279;96155;-58
2023/06/30 03:02:53;;;;;;;6.20;5.60;;;;;;;14.98;86.72;99962.45;104513;279;98071;-55
2023/06/30 03:05:25;;;;;;;;;;;;;;;14.98;86.85;99963.67;104084;279;121050;-55
2023/06/30 03:07:59;;;;;;;6.20;5.60;;;;;;;15.02;86.99;99959.98;104081;279;105446;-58
2023/06/30 03:10:33;;;;;;;6.90;6.30;;;;;;;15.08;87.16;99961.11;104112;279;113524;-58
2023/06/30 03:13:07;;;;;;;6.90;6.00;;;;;;;15.15;87.08;99959.10;104078;279;95841;-58
2023/06/30 03:15:41;;;;;;;7.00;5.90;;;;;;;15.17;87.23;99960.79;104102;279;98188;-58
2023/06/30 03:18:16;;;;;;;5.60;5.10;;;;;;;15.26;87.45;99960.96;104116;279;121007;-55
2023/06/30 03:20:50;;;;;;;7.80;5.20;;;;;;;15.36;87.65;99964.20;104474;279;105895;-56
2023/06/30 03:23:24;;;;;;;6.70;5.10;;;;;;;15.46;87.61;99965.00;104064;279;115264;-56
2023/06/30 03:25:56;;;;;;;;;;;;;;;15.54;87.47;99966.19;104112;279;96114;-58
2023/06/30 03:28:30;;;;;;;5.60;4.70;;;;;;;15.67;87.39;99965.21;104510;279;97362;-59
2023/06/30 03:31:04;;;;;;;6.00;5.50;;;;;;;16.04;87.19;99961.36;104074;279;118765;-56
2023/06/30 03:33:38;;;;;;;6.00;5.50;;;;;;;16.96;86.00;99960.30;104029;279;105130;-56
2023/06/30 03:36:12;;;;;;;6.00;5.00;;;;;;;17.64;85.23;99960.13;104064;279;113965;-58
2023/06/30 03:38:46;;;;;;;6.00;5.20;;;;;;;18.24;84.58;99956.35;104066;279;94021;-59
2023/06/30 03:41:20;;;;;;;8.40;5.60;;;;;;;19.17;83.33;99955.60;104479;279;97073;-58
2023/06/30 03:43:54;;;;;;;6.80;6.00;;;;;;;20.43;81.74;99947.73;104483;279;120942;-58
2023/06/30 03:46:28;;;;;;;6.00;5.40;;;;;;;21.57;79.99;99945.44;104493;279;104285;-58
2023/06/30 03:49:02;;;;;;;6.70;6.00;;;;;;;22.45;78.23;99942.12;104084;279;114786;-58
2023/06/30 03:51:36;;;;;;;6.10;5.50;;;;;;;23.17;76.48;99943.95;104099;268;93221;-58
2023/06/30 03:54:10;;;;;;;5.80;5.30;;;;;;;23.80;75.26;99941.23;104507;279;97444;-58
2023/06/30 03:56:44;;;;;;;7.40;5.20;;;;;;;24.39;73.48;99933.96;104103;279;121245;-56
2023/06/30 03:59:18;;;;;;;5.80;5.30;;;;;;;24.80;72.07;99938.17;104107;279;105577;-56
2023/06/30 04:01:53;;;;;;;6.00;5.20;;;;;;;25.30;70.67;99937.73;104482;279;114910;-59
2023/06/30 04:04:27;;;;;;;6.80;5.30;;;;;;;25.83;69.30;99936.91;104110;279;94882;-59
2023/06/30 04:07:01;;;;;;;7.60;5.50;;;;;;;26.29;67.49;99940.25;104151;279;98486;-56
2023/06/30 04:09:36;;;;;;;6.50;5.50;;;;;;;26.64;66.25;99936.29;104080;279;120237;-56
2023/06/30 04:12:12;;;;;;;6.10;5.60;;;;;;;27.22;64.92;99940.52;104126;279;104443;-56
2023/06/30 04:14:46;;;;;;;6.40;5.60;;;;;;;27.17;63.52;99939.34;104074;279;114706;-56
2023/06/30 04:17:20;;;;;;;8.00;6.30;;;;;;;27.57;62.50;99937.81;104050;279;92616;-56
2023/06/30 04:19:54;;;;;;;8.50;5.70;;;;;;;28.10;61.86;99941.16;104062;279;97274;-56
2023/06/30 04:22:27;;;;;;;6.50;5.20;;;;;;;28.55;60.39;99933.27;104486;279;120824;-59
2023/06/30 04:25:01;;;;;;;6.30;5.70;;;;;;;28.90;58.75;99933.99;104457;279;105892;-59
2023/06/30 04:27:36;;;;;;;6.30;5.70;;;;;;;28.51;57.50;99936.84;104046;279;114671;-56
2023/06/30 04:30:13;;;;;;;5.90;5.30;;;;;;;27.35;57.80;99942.16;104082;279;93547;-56
2023/06/30 04:32:47;;;;;;;8.00;6.00;;;;;;;26.67;57.97;99943.11;104069;279;97545;-64
2023/06/30 04:35:24;;;;;;;6.40;5.80;;;;;;;25.87;58.19;99947.80;104102;279;121623;-63
2023/06/30 04:37:58;;;;;;;6.20;5.60;;;;;;;25.15;58.94;99947.70;103845;279;105110;-63
2023/06/30 04:40:32;;;;;;;7.60;6.00;;;;;;;24.88;59.36;99946.89;104128;279;113186;-64
2023/06/30 04:43:12;;;;;;;6.90;6.00;;;;;;;24.34;59.79;99950.28;104001;279;96220;-64
2023/06/30 04:45:49;;;;;;;7.10;5.80;;;;;;;23.67;60.77;99956.16;104149;279;97251;-64
2023/06/30 04:48:24;;;;;;;6.80;6.10;;;;;;;23.42;61.42;99957.46;104124;279;120741;-64
2023/06/30 04:50:58;;;;;;;6.60;5.90;;;;;;;24.32;61.59;99948.80;104125;279;105250;-64
2023/06/30 04:53:32;;;;;;;8.50;6.70;;;;;;;26.15;59.99;99944.33;104069;279;113612;-64
2023/06/30 04:56:07;;;;;;;6.10;5.50;;;;;;;27.56;58.56;99938.20;104100;279;94554;-64
2023/06/30 04:58:41;;;;;;;7.90;6.90;;;;;;;28.42;57.41;99932.14;104102;279;97962;-64
2023/06/30 05:01:15;;;;;;;6.20;5.60;;;;;;;29.38;55.51;99927.34;104120;279;120114;-64
2023/06/30 05:03:49;;;;;;;6.30;5.70;;;;;;;30.14;54.23;99926.15;104073;279;105845;-64
2023/06/30 05:06:23;;;;;;;7.10;5.20;;;;;;;30.77;52.90;99924.20;104105;279;113441;-64
2023/06/30 05:08:57;;;;;;;6.40;5.40;;;;;;;31.29;52.34;99926.75;104095;279;94073;-64
2023/06/30 05:11:31;;;;;;;6.00;5.30;;;;;;;31.69;50.87;99932.89;104098;279;96600;-65
2023/06/30 05:14:05;;;;;;;5.90;5.30;;;;;;;32.13;49.23;99933.88;104077;279;119347;-65
2023/06/30 05:16:39;;;;;;;7.30;5.50;;;;;;;32.41;48.94;99936.48;104083;279;105410;-64
2023/06/30 05:19:13;;;;;;;6.50;4.90;;;;;;;32.65;48.31;99935.73;103933;279;112494;-65
2023/06/30 05:21:47;;;;;;;7.00;4.80;;;;;;;33.02;47.88;99932.95;104091;279;93145;-64
2023/06/30 05:24:21;;;;;;;7.40;5.80;;;;;;;33.67;46.33;99928.00;104118;279;96979;-65
2023/06/30 05:26:56;;;;;;;5.30;4.80;;;;;;;33.91;45.36;99930.48;104089;283;120557;-65
2023/06/30 05:29:32;;;;;;;5.90;5.40;;;;;;;34.37;44.99;99932.23;104060;279;104325;-64
2023/06/30 05:32:07;;;;;;;6.50;4.70;;;;;;;34.77;44.27;99936.86;104503;279;113065;-62
2023/06/30 05:34:43;;;;;;;7.60;4.90;;;;;;;34.91;44.11;99934.48;104056;279;93576;-65
2023/06/30 05:37:17;;;;;;;5.80;4.50;;;;;;;35.29;43.02;99934.80;104090;279;98367;-65
2023/06/30 05:39:51;;;;;;;5.10;4.60;;;;;;;35.41;42.39;99930.19;104475;279;119087;-66
2023/06/30 05:42:25;;;;;;;5.60;5.10;;;;;;;35.63;41.27;99931.66;104081;279;104322;-64
2023/06/30 05:44:59;;;;;;;4.80;4.40;;;;;;;35.44;40.48;99932.59;104462;279;114827;-64
2023/06/30 05:47:33;;;;;;;4.80;4.40;;;;;;;35.40;39.98;99936.02;104103;279;94410;-64
2023/06/30 05:50:09;;;;;;;6.50;4.60;;;;;;;35.23;39.59;99937.63;104109;279;98465;-65
2023/06/30 05:52:44;;;;;;;5.50;4.00;;;;;;;35.41;38.99;99934.03;104144;279;120270;-68
2023/06/30 05:55:18;;;;;;;5.60;4.80;;;;;;;35.58;38.92;99935.42;104109;279;105411;-63
2023/06/30 05:57:53;;;;;;;5.50;4.40;;;;;;;35.12;38.57;99933.75;104504;279;113707;-64
2023/06/30 06:00:27;;;;;;;4.70;3.90;;;;;;;35.27;38.80;99935.23;104066;279;93427;-64
2023/06/30 06:03:03;;;;;;;4.60;4.20;;;;;;;36.14;38.93;99937.90;104540;279;97217;-64
2023/06/30 06:05:37;;;;;;;5.50;4.60;;;;;;;36.72;38.06;99939.05;104110;279;120495;-64
2023/06/30 06:08:11;;;;;;;4.20;3.60;;;;;;;36.59;37.43;99937.58;104068;279;105593;-64
2023/06/30 06:10:48;;;;;;;4.90;4.30;;;;;;;35.42;38.59;99934.63;104108;279;114722;-64
2023/06/30 06:13:36;;;;;;;6.40;4.50;;;;;;;35.27;38.68;99928.89;104071;279;94424;-65
2023/06/30 06:16:11;;;;;;;6.30;4.20;;;;;;;34.89;38.43;99932.52;104131;283;97796;-65
2023/06/30 06:18:47;;;;;;;4.70;4.30;;;;;;;35.42;38.21;99933.58;104119;279;119976;-64
2023/06/30 06:21:26;;;;;;;5.50;3.80;;;;;;;36.28;37.52;99934.83;104080;279;105235;-65
2023/06/30 06:24:01;;;;;;;4.10;3.50;;;;;;;36.81;36.66;99937.85;104090;279;112996;-65
2023/06/30 06:26:36;;;;;;;4.30;3.40;;;;;;;37.07;36.37;99936.95;104093;279;93866;-64
2023/06/30 06:29:14;;;;;;;4.50;3.40;;;;;;;37.60;35.50;99929.33;103695;279;512123;-64
2023/06/30 06:31:48;;;;;;;3.70;3.30;;;;;;;37.89;34.70;99930.46;103985;279;119965;-65
2023/06/30 06:34:23;;;;;;;4.50;3.90;;;;;;;38.16;34.04;99930.00;104097;279;105886;-65
2023/06/30 06:36:57;;;;;;;4.60;3.30;;;;;;;38.07;33.33;99931.67;104128;279;115075;-65
2023/06/30 06:39:31;;;;;;;6.90;3.80;;;;;;;37.66;33.17;99929.66;104113;279;93240;-65
2023/06/30 06:42:06;;;;;;;4.80;3.60;;;;;;;37.74;32.83;99931.39;104111;279;95390;-65
2023/06/30 06:44:40;;;;;;;5.50;3.20;;;;;;;37.98;32.72;99931.39;104482;279;120811;-65
2023/06/30 06:47:54;;;;;;;3.90;3.30;;;;;;;38.42;32.21;99928.54;104091;279;104463;-64
2023/06/30 06:50:28;;;;;;;4.40;3.40;;;;;;;38.76;31.56;99930.52;104104;279;114727;-63
2023/06/30 06:53:03;;;;;;;4.30;3.50;;;;;;;38.93;31.60;99929.53;104065;279;94890;-65
2023/06/30 06:55:38;;;;;;;4.80;3.60;;;;;;;39.25;30.76;99927.00;104126;279;98052;-62
2023/06/30 06:58:12;;;;;;;3.20;2.90;;;;;;;39.29;30.63;99927.75;104109;279;119699;-66
2023/06/30 07:00:48;;;;;;;3.80;3.20;;;;;;;39.51;30.49;99927.73;104098;279;104622;-66
2023/06/30 07:03:23;;;;;;;4.00;3.20;;;;;;;39.54;30.57;99927.75;104042;279;114908;-64
2023/06/30 07:05:58;;;;;;;4.20;3.40;;;;;;;39.24;30.55;99927.87;104074;279;94452;-65
2023/06/30 07:08:35;;;;;;;3.30;3.00;;;;;;;38.52;30.60;99930.57;104131;279;98132;-64
2023/06/30 07:11:10;;;;;;;4.10;3.20;;;;;;;37.32;31.04;99923.58;104512;279;120118;-65
2023/06/30 07:13:45;;;;;;;4.00;3.00;;;;;;;36.63;31.76;99923.85;104498;279;106277;-64
2023/06/30 07:16:21;;;;;;;3.90;3.00;;;;;;;37.07;32.35;99920.68;103931;280;116918;-64
2023/06/30 07:18:55;;;;;;;4.60;3.00;;;;;;;37.52;31.99;99920.14;104091;279;93898;-65
2023/06/30 07:21:31;;;;;;;5.50;3.60;;;;;;;37.10;32.18;99922.25;104508;279;96782;-64
2023/06/30 07:24:06;;;;;;;4.20;2.90;;;;;;;36.61;32.69;99927.05;104123;279;119940;-61
2023/06/30 07:26:40;;;;;;;4.20;2.80;;;;;;;35.80;33.53;99926.34;104532;279;104042;-57
2023/06/30 07:29:15;;;;;;;4.20;3.00;;;;;;;34.97;33.95;99922.92;103965;279;115075;-58
2023/06/30 07:31:49;;;;;;;3.70;3.10;;;;;;;33.94;34.50;99926.36;104502;279;94667;-56
2023/06/30 07:34:23;;;;;;;3.90;3.00;;;;;;;33.40;35.05;99920.40;104099;279;97196;-67
2023/06/30 07:36:57;;;;;;;2.90;2.60;;;;;;;33.17;35.73;99921.92;103836;280;119413;-65
2023/06/30 07:39:31;;;;;;;5.00;2.90;;;;;;;33.05;35.88;99918.89;104100;279;104198;-64
2023/06/30 07:42:06;;;;;;;4.10;3.10;;;;;;;33.21;36.80;99920.15;104525;279;113398;-64
2023/06/30 07:44:40;;;;;;;4.10;3.00;;;;;;;33.44;36.33;99917.41;103929;280;94013;-64
2023/06/30 07:47:14;;;;;;;4.70;3.30;;;;;;;33.94;36.08;99915.53;104136;279;98175;-64
2023/06/30 07:49:48;;;;;;;5.20;3.10;;;;;;;34.76;35.59;99908.20;104093;279;120428;-64
2023/06/30 07:52:22;;;;;;;8.90;3.90;;;;;;;34.82;35.31;99907.45;104510;279;104582;-65
2023/06/30 07:54:57;;;;;;;6.80;3.20;;;;;;;34.87;35.07;99904.70;104022;279;114721;-65
2023/06/30 07:57:34;;;;;;;4.60;3.20;;;;;;;35.40;34.86;99904.08;104472;279;94860;-64
2023/06/30 08:00:11;;;;;;;3.50;2.60;;;;;;;36.00;33.91;99907.73;104507;279;97156;-64
2023/06/30 08:02:46;;;;;;;6.20;3.50;;;;;;;36.66;33.29;99905.73;104048;268;119973;-68
2023/06/30 08:05:20;;;;;;;3.20;2.60;;;;;;;36.77;32.44;99904.55;104510;279;105717;-68
2023/06/30 08:07:54;;;;;;;4.90;3.00;;;;;;;36.85;31.98;99904.29;104516;279;114818;-68
2023/06/30 08:10:28;;;;;;;4.60;2.70;;;;;;;37.24;32.20;99896.50;104062;279;94176;-57
2023/06/30 08:13:02;;;;;;;3.70;2.60;;;;;;;37.68;31.90;99893.67;104078;279;97939;-57
2023/06/30 08:15:36;;;;;;;4.40;2.30;;;;;;;38.32;31.25;99891.64;104104;279;119408;-57
2023/06/30 08:18:10;;;;;;;5.00;2.30;;;;;;;38.57;30.51;99888.59;104101;279;105291;-59
2023/06/30 08:20:44;;;;;;;2.90;2.40;;;;;;;38.74;29.97;99882.55;104084;279;115396;-59
2023/06/30 08:23:19;;;;;;;2.90;2.40;;;;;;;39.08;29.34;99885.84;104074;279;93742;-57
2023/06/30 08:25:55;;;;;;;3.30;2.20;;;;;;;39.22;28.93;99882.95;104092;268;97838;-57
2023/06/30 08:28:29;;;;;;;3.80;2.20;;;;;;;39.46;28.45;99880.44;104068;279;120397;-57
2023/06/30 08:31:03;;;;;;;3.50;2.20;;;;;;;39.43;28.34;99877.84;103884;279;105075;-61
2023/06/30 08:33:36;;;;;;;3.20;2.30;;;;;;;39.50;28.16;99873.91;104077;279;115713;-60
2023/06/30 08:36:11;;;;;;;3.90;2.20;;;;;;;39.83;28.21;99873.04;104088;279;94831;-59
2023/06/30 08:38:44;;;;;;;3.40;2.00;;;;;;;40.04;27.15;99875.38;104113;279;97762;-58
2023/06/30 08:41:18;;;;;;;2.90;2.40;;;;;;;39.99;27.40;99873.58;104079;279;119932;-59
2023/06/30 08:43:53;;;;;;;2.80;2.30;;;;;;;40.30;26.46;99876.43;104500;279;104646;-57
2023/06/30 08:46:29;;;;;;;3.80;2.30;;;;;;;40.40;26.76;99873.86;104054;279;113480;-61
2023/06/30 08:49:02;;;;;;;3.80;2.20;;;;;;;40.31;26.31;99875.55;104091;279;94538;-61
2023/06/30 08:51:37;;;;;;;4.30;2.30;;;;;;;40.34;26.35;99868.83;104100;279;97151;-57
2023/06/30 08:54:11;;;;;;;4.90;2.60;;;;;;;40.14;25.96;99869.04;104519;279;119848;-57
2023/06/30 08:56:45;;;;;;;2.90;2.40;;;;;;;39.91;25.93;99868.38;104532;279;104888;-57
2023/06/30 08:59:20;;;;;;;3.90;2.10;;;;;;;39.26;25.87;99867.77;104091;279;114293;-57
2023/06/30 09:01:55;;;;;;;4.70;2.20;;;;;;;38.30;26.49;99868.16;104513;279;94111;-57
2023/06/30 09:04:30;;;;;;;5.00;2.00;;;;;;;38.06;27.02;99864.02;104129;279;99079;-57
2023/06/30 09:07:06;;;;;;;2.70;1.90;;;;;;;37.45;26.50;99857.76;104104;279;120586;-60
2023/06/30 09:09:45;;;;;;;3.60;2.40;;;;;;;37.12;27.55;99859.04;103861;279;104891;-60
2023/06/30 09:12:20;;;;;;;2.60;2.10;;;;;;;36.95;28.15;99854.27;104061;279;113715;-56
2023/06/30 09:14:54;;;;;;;4.30;2.50;;;;;;;36.41;27.77;99859.41;104069;279;93801;-56
2023/06/30 09:17:29;;;;;;;3.80;2.10;;;;;;;35.37;28.11;99865.23;104100;279;97736;-56
2023/06/30 09:20:03;;;;;;;3.90;2.90;;;;;;;34.20;29.33;99863.08;104466;279;120328;-57
2023/06/30 09:22:40;;;;;;;2.60;2.10;;;;;;;33.37;30.32;99858.39;104114;279;104270;-56
2023/06/30 09:25:41;;;;;;;5.10;2.20;;;;;;;33.15;31.54;99863.00;104467;279;114461;-56
2023/06/30 09:28:17;;;;;;;2.80;2.30;;;;;;;33.46;31.54;99855.94;104078;279;93422;-56
2023/06/30 09:30:51;;;;;;;4.20;2.60;;;;;;;33.50;31.51;99851.33;103930;279;97089;-57
2023/06/30 09:33:26;;;;;;;4.10;2.40;;;;;;;33.58;31.67;99851.05;104082;279;119331;-56
2023/06/30 09:36:02;;;;;;;3.30;2.00;;;;;;;33.55;31.57;99847.17;104125;279;105870;-59
2023/06/30 09:38:37;;;;;;;4.10;2.40;;;;;;;33.59;31.23;99848.42;104119;279;113907;-58
2023/06/30 09:41:23;;;;;;;3.60;2.00;;;;;;;33.56;31.48;99850.41;104096;279;92653;-59
2023/06/30 09:44:04;;;;;;;3.00;1.90;;;;;;;33.71;32.00;99850.39;104508;279;96397;-59
2023/06/30 09:46:45;;;;;;;2.60;1.90;;;;;;;33.92;31.26;99846.66;104121;279;121316;-56
2023/06/30 09:49:30;;;;;;;3.30;1.90;;;;;;;33.84;31.32;99845.79;104473;279;105085;-55
2023/06/30 09:52:05;;;;;;;2.90;2.10;;;;;;;34.04;31.30;99842.94;104114;279;114782;-59
2023/06/30 09:54:39;;;;;;;5.70;2.00;;;;;;;33.64;31.46;99848.33;104131;279;93784;-59
2023/06/30 09:57:13;;;;;;;3.40;1.70;;;;;;;32.99;31.21;99846.87;104462;279;97039;-55
2023/06/30 09:59:48;;;;;;;2.40;1.70;;;;;;;32.15;31.38;99847.42;104072;279;121347;-55
2023/06/30 10:02:21;;;;;;;2.90;1.80;;;;;;;31.79;32.32;99850.34;104082;279;105023;-59
2023/06/30 10:04:55;;;;;;;2.90;2.40;;;;;;;31.56;33.06;99853.05;103855;279;115154;-59
2023/06/30 10:07:31;;;;;;;2.70;2.10;;;;;;;31.32;32.91;99849.80;103932;279;93886;-59
2023/06/30 10:10:09;;;;;;;2.90;2.00;;;;;;;31.05;32.72;99849.48;104110;279;98282;-60
2023/06/30 10:12:44;;;;;;;3.00;2.00;;;;;;;30.77;33.52;99846.63;104086;279;120076;-55
2023/06/30 10:15:18;;;;;;;4.20;2.10;;;;;;;30.43;33.76;99840.19;104094;279;105391;-56
2023/06/30 10:17:54;;;;;;;4.70;2.30;;;;;;;30.45;34.16;99837.48;104065;279;114697;-59
2023/06/30 10:24:12;;;;;;;2.70;2.00;;;;;;;31.28;33.99;99834.42;104160;276;95890;-60
2023/06/30 10:26:48;;;;;;;3.20;1.80;;;;;;;31.28;33.24;99833.61;104311;277;120434;-56
2023/06/30 10:29:23;;;;;;;3.20;2.00;;;;;;;31.11;32.65;99828.10;104322;277;103598;-59
2023/06/30 10:31:57;;;;;;;3.70;2.10;;;;;;;31.13;32.83;99822.92;104294;277;113891;-55
2023/06/30 10:34:33;;;;;;;3.80;2.00;;;;;;;31.36;33.13;99825.70;104291;277;95703;-59
2023/06/30 10:37:08;;;;;;;3.60;1.80;;;;;;;31.39;33.05;99824.79;104317;277;98250;-58
2023/06/30 10:39:47;;;;;;;2.20;1.80;;;;;;;30.92;33.25;99824.16;104310;277;121150;-59
2023/06/30 10:42:22;;;;;;;3.20;1.90;;;;;;;30.84;34.14;99818.55;104339;277;104690;-58
2023/06/30 10:45:00;;;;;;;3.00;1.90;;;;;;;31.21;34.28;99812.38;104321;277;114709;-58
2023/06/30 10:47:40;;;;;;;3.70;2.00;;;;;;;31.53;34.11;99805.73;104289;277;94464;-60
2023/06/30 10:50:19;;;;;;;2.30;1.90;;;;;;;31.63;33.89;99804.98;104301;277;96366;-60
2023/06/30 10:52:56;;;;;;;2.70;1.80;;;;;;;31.77;33.79;99804.15;104076;277;121133;-59
2023/06/30 10:55:32;;;;;;;3.10;1.90;;;;;;;31.83;33.42;99800.94;104281;265;105845;-59
2023/06/30 10:58:08;;;;;;;2.20;1.80;;;;;;;31.83;33.16;99797.58;104287;277;113379;-59
2023/06/30 11:01:06;;;;;;;2.20;1.80;;;;;;;31.72;32.55;99794.13;104299;277;93704;-59
2023/06/30 11:04:15;;;;;;;4.40;1.80;;;;;;;31.88;32.90;99794.48;104293;277;98547;-59
2023/06/30 11:07:06;;;;;;;3.00;1.70;;;;;;;31.98;32.33;99790.37;104301;277;120327;-56
2023/06/30 11:10:00;;;;;;;4.60;1.90;;;;;;;31.80;32.57;99785.80;104325;277;106227;-55
2023/06/30 11:12:56;;;;;;;2.30;1.70;;;;;;;31.67;32.74;99788.94;104317;277;114248;-59
2023/06/30 11:15:37;;;;;;;1.90;1.70;;;;;;;31.24;32.99;99785.92;104744;277;94496;-59
2023/06/30 11:18:19;;;;;;;2.70;1.80;;;;;;;30.88;32.68;99786.77;104324;277;97508;-60
2023/06/30 11:21:04;;;;;;;2.10;1.80;;;;;;;30.56;33.39;99785.05;104296;277;120636;-56
2023/06/30 11:23:39;;;;;;;2.40;2.20;;;;;;;30.54;34.09;99784.48;104728;277;105533;-56
2023/06/30 11:26:18;;;;;;;4.60;1.80;;;;;;;30.79;34.34;99782.65;104280;277;113893;-56
2023/06/30 11:28:53;;;;;;;2.50;2.00;;;;;;;31.11;34.85;99777.40;104293;277;92326;-56
2023/06/30 11:31:29;;;;;;;5.00;2.20;;;;;;;31.31;34.43;99768.96;104757;277;97229;-60
2023/06/30 11:34:03;;;;;;;2.90;1.90;;;;;;;31.41;34.45;99767.55;104061;279;119723;-60
2023/06/30 11:36:39;;;;;;;3.00;2.30;;;;;;;31.54;33.88;99765.14;104761;277;105773;-56
2023/06/30 11:39:16;;;;;;;2.50;2.10;;;;;;;31.51;33.62;99762.84;104293;277;114506;-56
2023/06/30 11:41:51;;;;;;;2.90;2.20;;;;;;;31.48;33.99;99761.28;104305;277;95023;-56
2023/06/30 11:44:25;;;;;;;3.20;1.80;;;;;;;31.46;34.08;99760.73;104338;277;97109;-57
2023/06/30 11:46:59;;;;;;;3.80;2.20;;;;;;;31.42;34.25;99755.05;104723;277;118986;-59
2023/06/30 11:49:37;;;;;;;2.70;1.90;;;;;;;31.45;34.45;99748.77;104322;277;104251;-60
2023/06/30 11:52:12;;;;;;;3.00;2.20;;;;;;;31.46;34.55;99751.23;104305;277;113396;-59
2023/06/30 11:54:46;;;;;;;3.70;2.20;;;;;;;31.46;33.97;99749.76;104732;277;95548;-59
2023/06/30 11:57:20;;;;;;;4.80;2.30;;;;;;;31.35;33.53;99742.48;104735;277;95934;-56
2023/06/30 11:59:54;;;;;;;2.70;2.00;;;;;;;31.44;33.21;99742.66;104062;279;121391;-55
2023/06/30 12:02:28;;;;;;;3.90;1.90;;;;;;;31.47;32.78;99738.23;104352;277;105565;-55
2023/06/30 12:05:04;;;;;;;2.60;2.30;;;;;;;31.47;32.99;99738.42;104294;277;114008;-56
2023/06/30 12:07:38;;;;;;;2.90;2.00;;;;;;;31.51;32.39;99741.27;104329;277;93257;-59
2023/06/30 12:10:14;;;;;;;3.00;1.90;;;;;;;31.42;32.27;99740.83;104326;277;97797;-60
2023/06/30 12:12:57;;;;;;;3.00;2.50;;;;;;;31.29;32.51;99733.89;104744;277;120900;-56